Time;durP1;ratioP1;P1;durP2;ratioP2;P2;SDS_P1;SDS_P2;PMS_P1;PMS_P2;Temp;Humidity;BMP_temperature;BMP_pressure;BME280_temperature;BME280_humidity;BME280_pressure;Samples;Min_cycle;Max_cycle;Signal;HPM_P1;HPM_P2
2023/01/29 00:01:44;;;;;;;21.47;12.60;;;1.50;64.30;;;;;;5040413;28;46270;-83
2023/01/29 00:04:09;;;;;;;26.00;12.20;;;1.40;64.20;;;;;;5042810;28;47155;-85
2023/01/29 00:06:35;;;;;;;23.73;12.57;;;1.30;64.60;;;;;;5040186;28;46416;-83
2023/01/29 00:09:00;;;;;;;18.30;10.70;;;1.10;65.20;;;;;;5032016;28;45793;-82
2023/01/29 00:11:26;;;;;;;23.07;12.27;;;1.00;65.80;;;;;;5031922;28;46317;-83
2023/01/29 00:13:52;;;;;;;22.97;11.43;;;1.00;66.00;;;;;;5040308;28;46400;-83
2023/01/29 00:16:18;;;;;;;22.25;11.63;;;1.00;66.00;;;;;;5044862;28;46431;-80
2023/01/29 00:18:43;;;;;;;18.30;11.67;;;1.00;65.90;;;;;;5047368;28;46463;-83
2023/01/29 00:21:11;;;;;;;15.60;9.90;;;1.10;65.70;;;;;;5041064;28;46500;-85
2023/01/29 00:23:37;;;;;;;18.67;10.15;;;1.00;65.70;;;;;;5040649;28;46457;-81
2023/01/29 00:26:02;;;;;;;16.43;9.30;;;1.00;65.80;;;;;;5013836;28;46648;-81
2023/01/29 00:28:28;;;;;;;18.73;9.30;;;0.90;65.70;;;;;;5041484;28;46555;-83
2023/01/29 00:30:53;;;;;;;14.63;8.50;;;0.90;65.90;;;;;;5058080;28;45995;-84
2023/01/29 00:33:19;;;;;;;12.20;7.50;;;0.80;66.00;;;;;;5054357;28;46424;-80
2023/01/29 00:35:44;;;;;;;14.03;8.37;;;0.80;66.10;;;;;;5025738;28;46497;-81
2023/01/29 00:38:10;;;;;;;12.60;7.13;;;0.80;66.10;;;;;;5036468;28;45796;-81
2023/01/29 00:46:09;;;;;;;15.93;8.80;;;0.70;66.20;;;;;;5034046;28;45860;-82
2023/01/29 00:48:34;;;;;;;13.67;8.57;;;0.80;66.00;;;;;;5022037;28;46528;-81
2023/01/29 00:51:01;;;;;;;13.07;8.10;;;0.80;66.10;;;;;;5034706;28;46917;-81
2023/01/29 00:53:27;;;;;;;11.52;7.82;;;0.70;66.20;;;;;;5029758;28;46380;-82
2023/01/29 00:55:52;;;;;;;13.23;8.30;;;0.70;66.30;;;;;;5013295;28;46408;-81
2023/01/29 00:58:27;;;;;;;14.17;8.20;;;0.70;66.40;;;;;;5031588;28;46352;-82
2023/01/29 01:00:53;;;;;;;17.08;9.75;;;0.60;66.50;;;;;;5033694;28;46391;-83
2023/01/29 01:03:18;;;;;;;12.50;8.18;;;0.70;66.40;;;;;;5033778;28;46771;-82
2023/01/29 01:05:44;;;;;;;16.30;9.40;;;0.70;66.50;;;;;;5034729;28;45781;-82
2023/01/29 01:11:02;;;;;;;16.48;10.15;;;0.70;66.40;;;;;;5035691;28;46262;-81
2023/01/29 01:13:30;;;;;;;21.40;10.00;;;0.70;66.30;;;;;;5032627;28;46278;-82
2023/01/29 01:15:55;;;;;;;17.60;10.38;;;0.70;66.40;;;;;;5034046;28;46624;-83
2023/01/29 01:18:21;;;;;;;18.40;10.77;;;0.70;66.60;;;;;;5020447;28;46379;-82
2023/01/29 01:20:50;;;;;;;18.20;10.33;;;0.70;66.60;;;;;;5034480;28;46542;-81
2023/01/29 01:23:17;;;;;;;17.75;10.85;;;0.70;66.60;;;;;;5023860;28;48244;-81
2023/01/29 01:25:43;;;;;;;16.33;10.20;;;0.70;66.80;;;;;;4996209;28;46376;-82
2023/01/29 01:28:09;;;;;;;15.37;9.70;;;0.80;66.80;;;;;;5019253;28;46437;-83
2023/01/29 01:30:35;;;;;;;20.85;10.32;;;0.70;67.00;;;;;;5015834;28;46356;-82
2023/01/29 01:33:01;;;;;;;16.03;10.30;;;0.80;66.90;;;;;;5034287;28;46699;-81
2023/01/29 01:35:27;;;;;;;18.30;10.67;;;0.80;66.90;;;;;;5034425;28;46425;-83
2023/01/29 01:37:52;;;;;;;16.90;10.33;;;0.70;66.80;;;;;;5022606;28;46397;-82
2023/01/29 01:40:20;;;;;;;16.43;9.20;;;0.70;67.20;;;;;;5032074;28;46544;-82
2023/01/29 01:42:48;;;;;;;13.38;9.07;;;0.60;67.40;;;;;;5032818;28;46376;-82
2023/01/29 01:45:28;;;;;;;13.63;8.52;;;0.60;67.60;;;;;;5040097;28;46772;-83
2023/01/29 01:48:05;;;;;;;12.80;8.90;;;0.60;67.60;;;;;;5036374;28;46927;-82
2023/01/29 01:50:44;;;;;;;14.48;8.60;;;0.60;67.80;;;;;;5037200;28;46782;-84
2023/01/29 01:53:19;;;;;;;17.77;9.60;;;0.60;67.80;;;;;;5037750;28;46990;-83
2023/01/29 01:55:51;;;;;;;16.42;10.13;;;0.70;67.60;;;;;;5040618;28;46471;-81
2023/01/29 01:58:29;;;;;;;18.00;10.23;;;0.80;67.00;;;;;;5028635;28;46501;-83
2023/01/29 02:00:55;;;;;;;17.10;10.45;;;0.90;66.50;;;;;;5042138;28;45825;-84
2023/01/29 02:11:46;;;;;;;16.42;9.55;;;1.10;66.00;;;;;;5041597;28;46388;-83
2023/01/29 02:14:12;;;;;;;15.70;9.07;;;0.90;66.40;;;;;;5031234;28;46746;-82
2023/01/29 02:16:37;;;;;;;15.57;9.40;;;0.80;66.90;;;;;;5028041;28;46265;-80
2023/01/29 02:19:08;;;;;;;13.97;9.50;;;0.80;66.80;;;;;;5035009;28;46416;-81
2023/01/29 02:21:46;;;;;;;17.55;9.60;;;0.90;66.40;;;;;;5034218;28;46414;-82
2023/01/29 02:24:24;;;;;;;12.80;9.07;;;1.00;66.30;;;;;;5028478;28;47614;-81
2023/01/29 02:27:05;;;;;;;13.45;9.27;;;1.00;66.20;;;;;;5016218;28;46564;-81
2023/01/29 02:29:50;;;;;;;13.02;8.95;;;1.00;65.90;;;;;;5038767;28;46455;-81
2023/01/29 02:32:31;;;;;;;14.32;8.52;;;1.00;66.00;;;;;;5029890;28;46350;-83
2023/01/29 02:38:10;;;;;;;15.07;9.85;;;0.90;66.20;;;;;;5035827;28;46414;-80
2023/01/29 02:40:41;;;;;;;12.85;9.48;;;0.80;66.60;;;;;;5029430;28;46751;-82
2023/01/29 02:43:30;;;;;;;15.25;8.70;;;0.80;67.00;;;;;;5037753;28;46436;-81
2023/01/29 02:46:03;;;;;;;13.75;9.60;;;0.80;67.00;;;;;;5032486;28;46455;-80
2023/01/29 02:48:42;;;;;;;15.57;9.05;;;0.80;67.00;;;;;;5034128;28;46427;-83
2023/01/29 02:51:20;;;;;;;23.52;9.57;;;1.00;66.30;;;;;;5035700;28;46393;-83
2023/01/29 02:53:56;;;;;;;12.85;9.20;;;1.10;65.50;;;;;;5023570;28;46387;-81
2023/01/29 02:56:28;;;;;;;16.70;9.65;;;1.20;65.10;;;;;;5033192;28;46384;-81
2023/01/29 02:59:11;;;;;;;16.88;9.48;;;1.30;65.00;;;;;;5030981;28;46527;-82
2023/01/29 03:01:48;;;;;;;16.00;10.75;;;1.30;64.60;;;;;;5033401;28;46406;-82
2023/01/29 03:04:21;;;;;;;13.90;8.60;;;1.20;65.10;;;;;;5029052;28;46364;-82
2023/01/29 03:06:57;;;;;;;16.38;9.48;;;1.10;65.70;;;;;;5023667;28;49614;-83
2023/01/29 03:09:31;;;;;;;19.95;9.32;;;1.20;65.70;;;;;;5031131;28;46539;-82
2023/01/29 03:12:17;;;;;;;14.77;9.25;;;1.10;65.80;;;;;;5017329;28;46440;-82
2023/01/29 03:17:45;;;;;;;14.45;8.38;;;1.00;65.60;;;;;;5031551;28;46482;-82
2023/01/29 03:20:16;;;;;;;17.58;10.10;;;1.00;66.10;;;;;;5034835;28;46912;-83
2023/01/29 03:22:49;;;;;;;16.08;8.60;;;0.90;66.40;;;;;;5016812;28;46432;-82
2023/01/29 03:34:03;;;;;;;16.58;9.93;;;1.20;65.20;;;;;;5038092;28;47232;-82
2023/01/29 03:36:38;;;;;;;14.65;9.18;;;1.20;64.70;;;;;;5013574;28;46293;-81
2023/01/29 03:39:08;;;;;;;18.10;8.98;;;1.20;64.70;;;;;;5033324;28;46458;-81
2023/01/29 03:41:37;;;;;;;16.27;8.95;;;1.30;64.70;;;;;;5016361;28;47048;-81
2023/01/29 03:44:39;;;;;;;12.93;8.02;;;1.20;64.70;;;;;;5018064;28;46537;-81
2023/01/29 03:47:21;;;;;;;12.98;9.40;;;1.30;64.70;;;;;;5036959;28;46325;-82
2023/01/29 03:50:07;;;;;;;12.73;8.75;;;1.40;64.40;;;;;;5036026;28;47181;-82
2023/01/29 03:52:58;;;;;;;13.60;8.60;;;1.40;64.40;;;;;;5043592;28;46245;-86
2023/01/29 03:55:32;;;;;;;13.68;8.02;;;1.40;64.40;;;;;;5040168;28;47087;-83
2023/01/29 03:58:04;;;;;;;15.63;9.43;;;1.40;64.40;;;;;;5040438;28;46373;-85
2023/01/29 04:00:37;;;;;;;14.20;8.82;;;1.40;64.30;;;;;;5037806;28;46359;-82
2023/01/29 04:03:20;;;;;;;13.70;9.00;;;1.40;64.50;;;;;;5022700;28;46849;-80
2023/01/29 04:06:09;;;;;;;13.93;8.75;;;1.30;64.80;;;;;;5019706;28;46484;-83
2023/01/29 04:08:44;;;;;;;16.17;9.65;;;1.20;65.00;;;;;;5008589;28;46364;-83
2023/01/29 04:11:13;;;;;;;13.52;9.48;;;1.20;65.40;;;;;;5027660;28;46533;-82
2023/01/29 04:13:39;;;;;;;15.23;9.73;;;1.10;65.60;;;;;;5031615;28;46571;-82
2023/01/29 04:16:09;;;;;;;14.32;9.40;;;1.10;65.80;;;;;;5032056;28;46480;-81
2023/01/29 04:18:35;;;;;;;15.57;10.18;;;1.10;65.80;;;;;;5030944;28;46368;-83
2023/01/29 04:21:01;;;;;;;16.05;10.50;;;1.00;65.90;;;;;;5034043;28;46458;-81
2023/01/29 04:23:27;;;;;;;13.60;8.95;;;1.00;65.90;;;;;;5033598;28;46347;-83
2023/01/29 04:26:05;;;;;;;14.80;9.83;;;1.00;66.10;;;;;;5035161;28;46465;-82
2023/01/29 04:29:05;;;;;;;15.05;9.07;;;0.90;66.10;;;;;;5036658;28;45896;-83
2023/01/29 04:31:40;;;;;;;17.63;10.30;;;0.90;66.30;;;;;;5032502;28;46421;-84
2023/01/29 04:34:28;;;;;;;16.00;9.38;;;0.80;66.30;;;;;;5037743;28;46477;-83
2023/01/29 04:37:15;;;;;;;16.45;10.15;;;0.80;66.40;;;;;;5023991;28;46286;-83
2023/01/29 04:39:47;;;;;;;18.33;11.10;;;0.70;66.30;;;;;;5035072;28;46668;-82
2023/01/29 04:42:44;;;;;;;17.17;11.30;;;0.70;66.50;;;;;;5038421;28;46587;-83
2023/01/29 04:45:25;;;;;;;15.77;9.43;;;0.60;66.70;;;;;;5020977;28;46445;-79
2023/01/29 04:48:07;;;;;;;15.07;9.25;;;0.60;66.90;;;;;;5038682;28;46419;-82
2023/01/29 04:50:43;;;;;;;17.42;9.85;;;0.70;66.60;;;;;;5029066;28;46576;-81
2023/01/29 04:53:11;;;;;;;15.20;10.23;;;0.70;66.50;;;;;;5025258;28;47973;-82
2023/01/29 04:55:52;;;;;;;16.25;10.40;;;0.70;66.50;;;;;;5021636;28;46812;-83
2023/01/29 04:58:30;;;;;;;16.42;10.45;;;0.70;66.40;;;;;;5035354;28;46399;-82
2023/01/29 05:00:57;;;;;;;17.20;10.00;;;0.70;66.20;;;;;;5025297;28;46405;-82
2023/01/29 05:03:25;;;;;;;14.32;9.73;;;0.80;66.00;;;;;;5030762;28;47251;-83
2023/01/29 05:05:54;;;;;;;16.30;9.63;;;0.70;66.00;;;;;;5019875;28;47169;-81
2023/01/29 05:08:23;;;;;;;15.60;9.63;;;0.60;66.40;;;;;;5037495;28;46663;-81
2023/01/29 05:10:51;;;;;;;17.05;11.02;;;0.60;66.50;;;;;;5035814;28;46270;-81
2023/01/29 05:13:19;;;;;;;16.17;10.55;;;0.60;66.50;;;;;;5038990;28;46456;-82
2023/01/29 05:15:54;;;;;;;16.85;10.57;;;0.60;66.50;;;;;;5021202;28;46334;-82
2023/01/29 05:18:19;;;;;;;17.42;10.68;;;0.60;66.50;;;;;;5041575;28;46674;-83
2023/01/29 05:20:46;;;;;;;16.90;9.87;;;0.50;66.60;;;;;;5030679;28;46234;-85
2023/01/29 05:23:20;;;;;;;16.92;10.35;;;0.60;66.70;;;;;;5041716;28;46218;-80
2023/01/29 05:25:48;;;;;;;19.50;9.45;;;0.50;66.70;;;;;;5026889;28;45987;-82
2023/01/29 05:28:17;;;;;;;16.15;10.57;;;0.50;66.80;;;;;;5034091;28;46448;-83
2023/01/29 05:30:44;;;;;;;16.17;10.05;;;0.50;66.70;;;;;;5024362;28;46296;-84
2023/01/29 05:33:13;;;;;;;15.65;10.52;;;0.50;66.70;;;;;;5034650;28;47267;-82
2023/01/29 05:35:38;;;;;;;17.15;10.75;;;0.50;66.80;;;;;;5014786;28;46451;-83
2023/01/29 05:38:04;;;;;;;15.10;9.53;;;0.40;67.00;;;;;;5034510;28;46362;-84
2023/01/29 05:40:29;;;;;;;17.50;10.23;;;0.40;67.20;;;;;;5037588;28;46727;-83
2023/01/29 05:42:55;;;;;;;18.13;11.13;;;0.40;67.20;;;;;;5026876;28;48209;-85
2023/01/29 05:45:21;;;;;;;16.00;10.67;;;0.50;67.10;;;;;;5036704;28;45849;-85
2023/01/29 05:47:46;;;;;;;16.13;10.20;;;0.50;67.10;;;;;;5016958;28;46725;-85
2023/01/29 05:50:13;;;;;;;17.57;11.03;;;0.40;67.40;;;;;;5014769;28;45898;-83
2023/01/29 05:52:40;;;;;;;17.85;11.70;;;0.30;67.60;;;;;;5030909;28;46368;-82
2023/01/29 05:55:06;;;;;;;17.80;12.07;;;0.30;67.60;;;;;;5030690;28;46383;-82
2023/01/29 05:57:32;;;;;;;18.50;11.43;;;0.40;67.90;;;;;;5018291;28;46415;-82
2023/01/29 05:59:57;;;;;;;20.63;11.43;;;0.40;67.60;;;;;;5036085;28;46589;-83
2023/01/29 06:02:23;;;;;;;19.87;12.10;;;0.50;67.40;;;;;;5016080;28;49225;-82
2023/01/29 06:04:50;;;;;;;19.13;11.57;;;0.50;67.40;;;;;;5029245;28;46449;-82
2023/01/29 06:07:16;;;;;;;19.90;11.93;;;0.40;67.40;;;;;;5034380;28;46295;-82
2023/01/29 06:09:41;;;;;;;20.30;12.73;;;0.50;67.40;;;;;;5033631;28;46348;-82
2023/01/29 06:12:07;;;;;;;19.07;12.53;;;0.50;67.10;;;;;;5011312;28;48455;-81
2023/01/29 06:14:32;;;;;;;20.30;13.07;;;0.70;66.80;;;;;;5033348;28;45793;-80
2023/01/29 06:16:58;;;;;;;22.83;13.93;;;0.60;66.70;;;;;;5033799;28;46409;-79
2023/01/29 06:19:24;;;;;;;18.30;12.03;;;0.50;67.10;;;;;;5036360;28;46721;-83
2023/01/29 06:21:49;;;;;;;20.43;12.30;;;0.50;67.10;;;;;;5011600;28;49571;-83
2023/01/29 06:24:15;;;;;;;19.63;12.13;;;0.60;67.00;;;;;;5036580;28;46818;-80
2023/01/29 06:26:40;;;;;;;21.40;12.63;;;0.80;66.40;;;;;;5037607;28;46488;-81
2023/01/29 06:29:06;;;;;;;18.10;12.80;;;0.90;65.80;;;;;;5036899;28;46221;-82
2023/01/29 06:31:31;;;;;;;16.97;11.30;;;1.00;65.40;;;;;;5030071;28;47488;-80
2023/01/29 06:33:57;;;;;;;19.20;12.00;;;1.00;65.20;;;;;;5021678;28;46352;-83
2023/01/29 06:36:23;;;;;;;22.30;12.60;;;1.10;65.20;;;;;;5030092;28;46526;-79
2023/01/29 06:38:48;;;;;;;23.23;11.83;;;1.00;65.30;;;;;;5018410;28;45964;-81
2023/01/29 06:41:16;;;;;;;17.93;11.50;;;1.10;65.60;;;;;;5020903;28;49052;-81
2023/01/29 06:43:46;;;;;;;17.55;11.65;;;1.00;65.50;;;;;;5021324;28;46415;-81
2023/01/29 06:46:12;;;;;;;19.00;11.93;;;1.00;65.90;;;;;;5032800;28;46451;-81
2023/01/29 06:48:38;;;;;;;30.10;13.23;;;1.00;66.00;;;;;;5030508;28;46518;-83
2023/01/29 06:51:06;;;;;;;19.33;11.63;;;1.00;65.80;;;;;;5029539;28;47777;-81
2023/01/29 06:53:36;;;;;;;18.00;12.30;;;0.90;66.10;;;;;;5031394;28;47144;-81
2023/01/29 06:56:02;;;;;;;19.65;12.82;;;0.90;66.20;;;;;;5035226;28;46371;-82
2023/01/29 06:58:28;;;;;;;20.33;12.40;;;0.90;66.30;;;;;;5025033;28;46380;-82
2023/01/29 07:00:53;;;;;;;23.60;13.83;;;1.00;65.90;;;;;;5037285;28;46459;-81
2023/01/29 07:03:19;;;;;;;26.40;14.17;;;1.10;65.50;;;;;;5034352;28;46415;-81
2023/01/29 07:05:53;;;;;;;17.63;11.57;;;1.20;65.40;;;;;;5031696;28;46418;-83
2023/01/29 07:08:21;;;;;;;18.67;11.52;;;1.30;65.00;;;;;;5034563;28;46408;-81
2023/01/29 07:10:47;;;;;;;20.20;12.52;;;1.40;64.60;;;;;;5030693;28;46485;-83
2023/01/29 07:13:13;;;;;;;18.90;12.65;;;1.50;64.20;;;;;;5033906;28;46404;-82
2023/01/29 07:15:38;;;;;;;18.10;12.30;;;1.60;63.90;;;;;;5037437;28;46436;-83
2023/01/29 07:18:10;;;;;;;20.50;12.23;;;1.60;63.60;;;;;;5034640;28;46882;-82
2023/01/29 07:20:38;;;;;;;26.77;14.45;;;1.70;63.50;;;;;;5038537;28;47217;-83
2023/01/29 07:23:03;;;;;;;21.55;13.25;;;1.70;63.70;;;;;;5027656;28;46420;-83
2023/01/29 07:25:29;;;;;;;25.00;14.20;;;1.70;63.90;;;;;;5033967;28;46465;-84
2023/01/29 07:27:55;;;;;;;31.42;16.58;;;1.70;64.10;;;;;;5020454;28;46403;-85
2023/01/29 07:30:21;;;;;;;19.80;11.70;;;1.70;64.20;;;;;;5036026;28;49573;-82
2023/01/29 07:32:46;;;;;;;20.23;11.73;;;1.70;64.10;;;;;;5035142;28;46491;-84
2023/01/29 07:35:12;;;;;;;19.50;11.40;;;1.70;64.10;;;;;;5036979;28;46449;-84
2023/01/29 07:37:37;;;;;;;19.47;11.83;;;1.70;64.10;;;;;;5030467;28;46856;-85
2023/01/29 07:40:09;;;;;;;19.87;12.80;;;1.80;64.10;;;;;;5030843;28;46532;-84
2023/01/29 07:42:34;;;;;;;19.58;13.18;;;1.90;63.60;;;;;;5009998;28;46908;-80
2023/01/29 07:45:00;;;;;;;15.20;10.90;;;2.00;63.10;;;;;;5030112;28;46467;-80
2023/01/29 07:47:25;;;;;;;16.70;11.30;;;2.10;62.90;;;;;;5033222;28;46378;-81
2023/01/29 07:49:51;;;;;;;18.00;11.40;;;2.10;62.60;;;;;;5019010;28;49311;-82
2023/01/29 07:52:17;;;;;;;15.50;8.17;;;2.10;62.60;;;;;;5015255;28;46584;-80
2023/01/29 07:54:43;;;;;;;8.85;6.13;;;2.10;62.70;;;;;;5011793;28;46502;-83
2023/01/29 07:57:08;;;;;;;10.17;6.80;;;2.10;62.80;;;;;;5020683;28;46337;-82
2023/01/29 07:59:34;;;;;;;15.50;9.90;;;2.20;62.80;;;;;;5023026;28;46690;-83
2023/01/29 08:02:00;;;;;;;14.45;8.23;;;2.20;62.50;;;;;;5017962;28;46807;-82
2023/01/29 08:04:25;;;;;;;14.50;9.23;;;2.30;62.30;;;;;;5015730;28;46542;-83
2023/01/29 08:06:51;;;;;;;12.57;8.97;;;2.30;62.00;;;;;;5033597;28;47196;-82
2023/01/29 08:09:16;;;;;;;14.20;8.60;;;2.40;62.10;;;;;;5035842;28;46410;-85
2023/01/29 08:11:42;;;;;;;13.37;8.90;;;2.50;61.90;;;;;;5023086;28;46442;-82
2023/01/29 08:14:08;;;;;;;13.70;8.87;;;2.50;61.70;;;;;;5020986;28;46515;-81
2023/01/29 08:16:34;;;;;;;15.43;9.60;;;2.50;61.60;;;;;;5026333;28;46413;-83
2023/01/29 08:19:01;;;;;;;16.70;8.65;;;2.60;61.70;;;;;;5018567;28;48578;-81
2023/01/29 08:21:26;;;;;;;12.40;8.27;;;2.60;61.60;;;;;;5025430;28;46389;-81
2023/01/29 08:23:52;;;;;;;13.10;8.80;;;2.70;61.50;;;;;;5036674;28;46325;-82
2023/01/29 08:26:17;;;;;;;12.97;8.20;;;2.80;61.30;;;;;;5023215;28;46226;-83
2023/01/29 08:28:43;;;;;;;14.03;7.77;;;2.80;61.00;;;;;;5038270;28;46475;-82
2023/01/29 08:31:17;;;;;;;13.00;8.63;;;2.90;60.90;;;;;;5034910;28;46475;-83
2023/01/29 08:33:42;;;;;;;12.60;8.70;;;3.00;60.60;;;;;;5031686;28;45876;-82
2023/01/29 08:36:08;;;;;;;10.40;7.30;;;3.00;60.50;;;;;;5034520;28;46737;-83
2023/01/29 08:38:34;;;;;;;12.73;7.63;;;3.00;60.60;;;;;;5033216;28;47091;-82
2023/01/29 08:41:00;;;;;;;11.60;7.40;;;3.00;60.80;;;;;;5035781;28;46300;-83
2023/01/29 08:43:25;;;;;;;12.50;7.40;;;3.00;60.70;;;;;;5035488;28;46643;-82
2023/01/29 08:45:51;;;;;;;9.90;6.67;;;3.10;60.80;;;;;;5032022;28;46673;-82
2023/01/29 08:48:16;;;;;;;10.70;6.87;;;3.10;60.50;;;;;;5038332;28;46388;-86
2023/01/29 08:50:42;;;;;;;9.40;6.50;;;3.00;60.20;;;;;;5043428;28;46309;-86
2023/01/29 08:53:08;;;;;;;9.83;6.20;;;3.00;60.10;;;;;;5019220;28;46321;-83
2023/01/29 08:55:36;;;;;;;11.27;6.75;;;3.00;59.60;;;;;;5035532;28;46222;-84
2023/01/29 08:58:06;;;;;;;10.50;6.78;;;2.90;59.40;;;;;;5035216;28;46964;-85
2023/01/29 09:00:33;;;;;;;12.07;7.32;;;2.80;59.30;;;;;;5027398;28;46544;-85
2023/01/29 09:02:59;;;;;;;8.43;6.15;;;2.80;59.40;;;;;;5036345;28;46465;-85
2023/01/29 09:05:25;;;;;;;10.80;7.07;;;2.80;59.50;;;;;;5034398;28;46427;-79
2023/01/29 09:07:51;;;;;;;12.17;8.20;;;2.80;59.30;;;;;;5035400;28;46679;-86
2023/01/29 09:10:16;;;;;;;12.00;8.30;;;2.80;59.30;;;;;;5035938;28;46494;-87
2023/01/29 09:12:42;;;;;;;11.47;7.57;;;2.60;60.00;;;;;;5034186;28;46519;-88
2023/01/29 09:15:08;;;;;;;11.90;6.57;;;2.50;60.50;;;;;;5033130;28;46442;-85
2023/01/29 09:17:34;;;;;;;10.88;7.25;;;2.60;60.30;;;;;;5030916;28;46434;-85
2023/01/29 09:19:59;;;;;;;11.13;7.30;;;2.80;59.80;;;;;;5031440;28;46388;-86
2023/01/29 09:22:25;;;;;;;11.10;7.73;;;2.90;59.40;;;;;;5033505;28;46262;-84
2023/01/29 09:24:51;;;;;;;15.77;8.70;;;3.00;59.50;;;;;;5032900;28;46469;-87
2023/01/29 09:27:16;;;;;;;15.63;9.50;;;2.80;59.30;;;;;;5035234;28;46147;-87
2023/01/29 09:29:42;;;;;;;17.33;8.93;;;2.80;59.60;;;;;;5030170;28;46389;-84
2023/01/29 09:32:07;;;;;;;12.80;7.73;;;2.80;59.60;;;;;;5033309;28;46790;-84
2023/01/29 09:34:33;;;;;;;11.60;7.33;;;2.90;59.40;;;;;;5032094;28;45935;-80
2023/01/29 09:36:59;;;;;;;11.30;8.05;;;2.70;59.20;;;;;;5031032;28;46390;-83
2023/01/29 09:39:25;;;;;;;12.43;8.50;;;2.60;59.70;;;;;;5033011;28;46390;-84
2023/01/29 09:42:13;;;;;;;11.60;7.10;;;2.50;60.00;;;;;;5021701;28;46282;-84
2023/01/29 09:45:03;;;;;;;9.07;6.38;;;2.50;59.60;;;;;;5022451;28;45901;-82
2023/01/29 09:47:31;;;;;;;10.70;6.22;;;2.50;59.90;;;;;;5026763;28;47254;-81
2023/01/29 09:50:04;;;;;;;9.15;6.60;;;2.40;59.70;;;;;;5033860;28;46468;-81
2023/01/29 09:52:40;;;;;;;7.68;5.55;;;2.30;59.80;;;;;;5030367;28;46448;-85
2023/01/29 09:55:21;;;;;;;11.07;6.20;;;2.40;58.90;;;;;;5030344;28;46656;-83
2023/01/29 09:57:53;;;;;;;10.30;7.05;;;2.50;58.60;;;;;;5021409;28;47296;-83
2023/01/29 10:00:44;;;;;;;514.72;178.98;;;2.60;57.50;;;;;;5029513;28;46726;-83
2023/01/29 10:03:32;;;;;;;176.02;77.45;;;2.70;57.40;;;;;;5033944;28;46711;-84
2023/01/29 10:06:16;;;;;;;92.47;51.63;;;2.90;57.10;;;;;;5029962;28;46340;-83
2023/01/29 10:09:21;;;;;;;20.10;11.95;;;3.00;57.10;;;;;;5034511;28;46902;-84
2023/01/29 10:12:23;;;;;;;17.45;10.23;;;3.00;56.90;;;;;;5030781;28;46447;-83
2023/01/29 10:15:08;;;;;;;55.95;30.35;;;3.10;56.80;;;;;;5026682;28;46490;-86
2023/01/29 10:17:55;;;;;;;24.90;16.80;;;3.10;56.50;;;;;;5030548;28;46480;-84
2023/01/29 10:20:24;;;;;;;18.80;10.40;;;3.00;56.60;;;;;;5030841;28;46469;-85
2023/01/29 10:23:24;;;;;;;11.80;7.38;;;2.80;57.10;;;;;;5026232;28;47147;-86
2023/01/29 10:25:50;;;;;;;23.75;12.20;;;2.80;57.20;;;;;;5042793;28;45824;-88
2023/01/29 10:28:42;;;;;;;14.73;8.55;;;2.80;58.20;;;;;;5040973;28;46192;-87
2023/01/29 10:31:23;;;;;;;44.47;29.63;;;3.10;56.40;;;;;;5028589;28;46447;-84
2023/01/29 10:33:52;;;;;;;23.92;14.23;;;3.20;55.70;;;;;;4994712;28;46439;-85
2023/01/29 10:36:22;;;;;;;11.25;7.75;;;3.20;55.90;;;;;;5031565;28;46439;-83
2023/01/29 10:38:49;;;;;;;10.20;7.00;;;3.40;55.50;;;;;;5032163;28;46230;-84
2023/01/29 10:41:39;;;;;;;10.25;6.90;;;3.50;54.90;;;;;;5030619;28;46622;-85
2023/01/29 10:44:26;;;;;;;10.13;7.18;;;3.60;54.50;;;;;;5029691;28;46451;-82
2023/01/29 10:47:27;;;;;;;13.38;8.02;;;3.70;54.70;;;;;;5031677;28;46440;-82
2023/01/29 10:50:04;;;;;;;16.63;9.77;;;3.70;54.90;;;;;;5004781;28;46876;-83
2023/01/29 10:52:42;;;;;;;13.25;7.70;;;3.70;54.90;;;;;;5033813;28;47492;-83
2023/01/29 10:55:38;;;;;;;24.35;14.05;;;3.80;54.40;;;;;;5017539;28;46917;-85
2023/01/29 10:58:09;;;;;;;14.30;8.23;;;3.50;55.00;;;;;;5028750;28;46605;-84
2023/01/29 11:00:38;;;;;;;10.40;7.27;;;3.20;55.50;;;;;;5027857;28;46883;-83
2023/01/29 11:03:17;;;;;;;13.40;8.35;;;3.00;56.00;;;;;;5027822;28;46528;-85
2023/01/29 11:06:00;;;;;;;14.65;9.07;;;2.90;56.10;;;;;;5030880;28;46652;-86
2023/01/29 11:08:41;;;;;;;24.25;13.00;;;2.90;56.00;;;;;;5029369;28;46345;-86
2023/01/29 11:11:10;;;;;;;16.07;9.20;;;3.00;55.80;;;;;;5019780;28;46531;-84
2023/01/29 11:14:00;;;;;;;11.00;7.88;;;3.30;54.70;;;;;;5019875;28;48448;-85
2023/01/29 11:16:29;;;;;;;11.20;6.97;;;3.40;54.00;;;;;;5011278;28;46392;-87
2023/01/29 11:18:59;;;;;;;13.73;8.10;;;3.70;53.20;;;;;;5030001;28;46974;-86
2023/01/29 11:21:27;;;;;;;10.10;6.93;;;4.00;52.40;;;;;;5028929;28;46639;-86
2023/01/29 11:24:06;;;;;;;10.90;6.38;;;3.80;52.00;;;;;;5028112;28;47669;-84
2023/01/29 11:26:37;;;;;;;12.80;8.70;;;3.90;51.40;;;;;;5019445;28;45988;-86
2023/01/29 11:29:02;;;;;;;9.80;6.88;;;4.00;51.10;;;;;;5011226;28;46525;-83
2023/01/29 11:31:38;;;;;;;10.60;7.67;;;4.00;50.20;;;;;;5028746;28;47109;-84
2023/01/29 11:34:28;;;;;;;10.93;7.20;;;4.00;50.10;;;;;;5027665;28;46023;-85
2023/01/29 11:37:00;;;;;;;8.73;6.63;;;4.10;50.50;;;;;;5031535;28;46909;-85
2023/01/29 11:39:28;;;;;;;12.90;8.73;;;4.10;51.00;;;;;;5033169;28;47550;-85
2023/01/29 11:41:58;;;;;;;15.17;9.87;;;4.20;50.60;;;;;;5033317;28;46743;-83
2023/01/29 11:44:32;;;;;;;13.30;8.60;;;4.30;50.10;;;;;;5012870;28;48193;-83
2023/01/29 11:47:19;;;;;;;11.30;6.82;;;4.20;49.50;;;;;;5013009;28;46974;-83
2023/01/29 11:49:52;;;;;;;13.80;8.68;;;4.00;49.00;;;;;;5031440;28;46525;-83
2023/01/29 11:52:21;;;;;;;11.70;8.63;;;4.00;49.70;;;;;;5031125;28;46241;-83
2023/01/29 11:55:01;;;;;;;13.25;8.18;;;4.00;49.80;;;;;;5029301;28;46522;-83
2023/01/29 11:57:33;;;;;;;14.00;9.10;;;3.90;49.90;;;;;;5028547;28;47045;-84
2023/01/29 12:00:06;;;;;;;12.07;8.63;;;4.00;49.50;;;;;;5031277;28;47028;-82
2023/01/29 12:02:42;;;;;;;11.95;8.30;;;4.00;49.60;;;;;;5031465;28;46477;-84
2023/01/29 12:05:21;;;;;;;11.00;7.57;;;4.00;49.80;;;;;;5029770;28;46532;-85
2023/01/29 12:07:52;;;;;;;11.30;7.57;;;4.00;50.00;;;;;;5031396;28;46494;-85
2023/01/29 12:10:39;;;;;;;12.23;8.05;;;4.00;50.10;;;;;;5032442;28;47471;-84
2023/01/29 12:13:24;;;;;;;11.90;7.93;;;4.00;49.70;;;;;;5032626;28;46438;-84
2023/01/29 12:16:10;;;;;;;11.00;7.63;;;4.00;49.90;;;;;;5006052;28;47045;-84
2023/01/29 12:18:40;;;;;;;14.05;7.00;;;4.10;49.60;;;;;;5031501;28;46452;-84
2023/01/29 12:21:28;;;;;;;11.67;8.00;;;4.00;49.80;;;;;;5030224;28;47058;-83
2023/01/29 12:23:56;;;;;;;15.70;9.97;;;4.00;49.70;;;;;;5028914;28;46910;-85
2023/01/29 12:26:31;;;;;;;12.40;8.03;;;4.10;49.20;;;;;;5031991;28;47027;-85
2023/01/29 12:29:12;;;;;;;13.60;8.75;;;4.00;47.70;;;;;;5031118;28;47034;-84
2023/01/29 12:31:57;;;;;;;10.52;7.65;;;4.00;48.20;;;;;;5032388;28;46997;-83
2023/01/29 12:34:38;;;;;;;14.20;8.77;;;4.00;48.40;;;;;;5030185;28;46974;-85
2023/01/29 12:37:44;;;;;;;13.70;8.27;;;3.90;48.70;;;;;;5031148;28;46454;-83
2023/01/29 12:40:16;;;;;;;12.50;7.75;;;3.90;48.80;;;;;;5030503;28;46436;-80
2023/01/29 12:42:46;;;;;;;13.90;8.02;;;3.90;48.80;;;;;;5030524;28;46475;-85
2023/01/29 12:45:20;;;;;;;12.50;7.93;;;3.90;48.50;;;;;;5024743;28;46479;-82
2023/01/29 12:47:58;;;;;;;11.77;7.80;;;3.90;48.60;;;;;;5014042;28;48134;-83
2023/01/29 12:50:28;;;;;;;10.20;7.75;;;3.90;48.30;;;;;;5029650;28;46663;-83
2023/01/29 12:53:09;;;;;;;10.60;7.80;;;3.80;48.40;;;;;;5030081;28;47499;-82
2023/01/29 12:55:46;;;;;;;13.68;8.82;;;3.70;48.90;;;;;;5030025;28;46557;-82
2023/01/29 12:58:30;;;;;;;16.93;8.73;;;3.70;48.60;;;;;;5031071;28;47145;-83
2023/01/29 13:01:01;;;;;;;14.73;8.60;;;3.60;48.80;;;;;;5030291;28;46571;-83
2023/01/29 13:03:57;;;;;;;10.83;7.90;;;3.60;49.10;;;;;;5031184;28;47495;-83
2023/01/29 13:06:29;;;;;;;12.20;8.03;;;3.60;48.90;;;;;;5031014;28;47022;-83
2023/01/29 13:08:58;;;;;;;13.27;8.00;;;3.70;48.80;;;;;;5030112;28;46427;-85
2023/01/29 13:11:53;;;;;;;10.40;6.97;;;3.80;48.50;;;;;;5004633;28;45976;-84
2023/01/29 13:14:27;;;;;;;10.45;7.07;;;3.80;48.30;;;;;;5029429;28;46898;-83
2023/01/29 13:17:01;;;;;;;24.67;14.13;;;3.70;48.40;;;;;;5029837;28;46598;-84
2023/01/29 13:19:33;;;;;;;10.60;7.00;;;3.60;48.80;;;;;;5029361;28;47536;-81
2023/01/29 13:22:01;;;;;;;23.23;9.75;;;3.60;49.10;;;;;;5028752;28;47177;-82
2023/01/29 13:24:34;;;;;;;24.52;12.02;;;3.50;49.30;;;;;;5029307;28;46736;-84
2023/01/29 13:27:00;;;;;;;20.33;13.90;;;3.60;49.40;;;;;;5014535;28;46615;-83
2023/01/29 13:29:29;;;;;;;15.03;8.50;;;3.60;49.40;;;;;;5030182;28;46452;-84
2023/01/29 13:31:57;;;;;;;23.23;14.20;;;3.80;48.90;;;;;;5029202;28;46495;-83
2023/01/29 13:34:30;;;;;;;24.05;12.23;;;3.70;48.80;;;;;;5028312;28;46480;-84
2023/01/29 13:37:16;;;;;;;14.97;9.10;;;3.70;48.90;;;;;;5011726;28;46604;-83
2023/01/29 13:39:51;;;;;;;12.85;9.18;;;3.70;48.80;;;;;;5029072;28;47573;-82